Airports Ireland Dublin Airport

Dublin Airport (EIDW / DUB)

Facts about Dublin Airport

Name Dublin Airport
City Dublin
Country Ireland
ICAO code EIDW
IATA code DUB
Elevation 73.7616 meters (242 feet)

Weather

METAR

Metar data retrieved Sunday, 21 July 2024 at 18:55 UTC (26 minutes ago)

EIDW 211830Z 16005KT 100V200 9999 -SHRA FEW018CB SCT034 BKN042 17/11 Q1009 NOSIG

Live traffic

Navigraph Charts (account required)